sensor_id;sensor_type;location;lat;lon;timestamp;P1;durP1;ratioP1;P2;durP2;ratioP2
56161;SDS011;42045;52.986;6.014;2022-10-14T00:01:19;341.55;;;22.77;;
56161;SDS011;42045;52.986;6.014;2022-10-14T00:03:46;311.23;;;20.42;;
56161;SDS011;42045;52.986;6.014;2022-10-14T00:06:16;303.60;;;20.15;;
56161;SDS011;42045;52.986;6.014;2022-10-14T00:08:44;163.77;;;15.18;;
56161;SDS011;42045;52.986;6.014;2022-10-14T00:11:12;133.50;;;15.32;;
56161;SDS011;42045;52.986;6.014;2022-10-14T00:13:42;166.13;;;17.05;;
56161;SDS011;42045;52.986;6.014;2022-10-14T00:16:18;152.95;;;17.98;;
56161;SDS011;42045;52.986;6.014;2022-10-14T00:18:46;175.32;;;18.73;;
56161;SDS011;42045;52.986;6.014;2022-10-14T00:21:12;153.40;;;18.30;;
56161;SDS011;42045;52.986;6.014;2022-10-14T00:23:38;177.23;;;19.60;;
56161;SDS011;42045;52.986;6.014;2022-10-14T00:26:03;105.43;;;17.67;;
56161;SDS011;42045;52.986;6.014;2022-10-14T00:28:29;122.75;;;18.98;;
56161;SDS011;42045;52.986;6.014;2022-10-14T00:30:56;131.00;;;19.42;;
56161;SDS011;42045;52.986;6.014;2022-10-14T00:33:23;155.25;;;20.65;;
56161;SDS011;42045;52.986;6.014;2022-10-14T00:35:56;120.22;;;20.75;;
56161;SDS011;42045;52.986;6.014;2022-10-14T00:38:23;147.68;;;21.55;;
56161;SDS011;42045;52.986;6.014;2022-10-14T00:40:49;107.25;;;19.67;;
56161;SDS011;42045;52.986;6.014;2022-10-14T00:43:15;68.28;;;19.02;;
56161;SDS011;42045;52.986;6.014;2022-10-14T00:45:40;88.40;;;19.60;;
56161;SDS011;42045;52.986;6.014;2022-10-14T00:48:06;96.68;;;19.98;;
56161;SDS011;42045;52.986;6.014;2022-10-14T00:50:33;233.00;;;26.27;;
56161;SDS011;42045;52.986;6.014;2022-10-14T00:53:00;226.45;;;25.45;;
56161;SDS011;42045;52.986;6.014;2022-10-14T00:55:27;246.57;;;24.77;;
56161;SDS011;42045;52.986;6.014;2022-10-14T00:57:53;318.58;;;29.50;;
56161;SDS011;42045;52.986;6.014;2022-10-14T01:00:20;288.40;;;30.20;;
56161;SDS011;42045;52.986;6.014;2022-10-14T01:02:47;312.20;;;29.58;;
56161;SDS011;42045;52.986;6.014;2022-10-14T01:05:14;213.55;;;24.33;;
56161;SDS011;42045;52.986;6.014;2022-10-14T01:12:48;353.90;;;31.15;;
56161;SDS011;42045;52.986;6.014;2022-10-14T01:15:34;234.27;;;25.35;;
56161;SDS011;42045;52.986;6.014;2022-10-14T01:32:06;370.92;;;34.03;;
56161;SDS011;42045;52.986;6.014;2022-10-14T01:34:41;374.83;;;33.53;;
56161;SDS011;42045;52.986;6.014;2022-10-14T01:37:15;405.20;;;34.17;;
56161;SDS011;42045;52.986;6.014;2022-10-14T01:39:49;350.67;;;30.55;;
56161;SDS011;42045;52.986;6.014;2022-10-14T01:42:21;403.60;;;34.70;;
56161;SDS011;42045;52.986;6.014;2022-10-14T01:44:57;433.85;;;36.28;;
56161;SDS011;42045;52.986;6.014;2022-10-14T01:47:29;313.83;;;29.33;;
56161;SDS011;42045;52.986;6.014;2022-10-14T01:49:59;352.25;;;32.47;;
56161;SDS011;42045;52.986;6.014;2022-10-14T01:52:31;321.73;;;28.52;;
56161;SDS011;42045;52.986;6.014;2022-10-14T01:55:05;386.08;;;33.00;;
56161;SDS011;42045;52.986;6.014;2022-10-14T01:57:36;275.95;;;28.10;;
56161;SDS011;42045;52.986;6.014;2022-10-14T02:00:03;376.75;;;31.42;;
56161;SDS011;42045;52.986;6.014;2022-10-14T02:02:34;351.70;;;32.10;;
56161;SDS011;42045;52.986;6.014;2022-10-14T02:05:01;353.65;;;31.02;;
56161;SDS011;42045;52.986;6.014;2022-10-14T02:07:40;387.55;;;33.30;;
56161;SDS011;42045;52.986;6.014;2022-10-14T02:12:50;342.98;;;32.10;;
56161;SDS011;42045;52.986;6.014;2022-10-14T02:15:41;337.42;;;31.05;;
56161;SDS011;42045;52.986;6.014;2022-10-14T02:21:29;210.82;;;26.83;;
56161;SDS011;42045;52.986;6.014;2022-10-14T02:24:09;454.65;;;37.47;;
56161;SDS011;42045;52.986;6.014;2022-10-14T02:26:43;458.17;;;34.65;;
56161;SDS011;42045;52.986;6.014;2022-10-14T02:29:10;309.10;;;27.17;;
56161;SDS011;42045;52.986;6.014;2022-10-14T02:31:36;266.52;;;26.35;;
56161;SDS011;42045;52.986;6.014;2022-10-14T02:34:05;243.85;;;27.10;;
56161;SDS011;42045;52.986;6.014;2022-10-14T02:36:34;232.73;;;27.48;;
56161;SDS011;42045;52.986;6.014;2022-10-14T02:39:01;181.23;;;24.35;;
56161;SDS011;42045;52.986;6.014;2022-10-14T02:41:32;172.70;;;24.27;;
56161;SDS011;42045;52.986;6.014;2022-10-14T02:43:59;145.23;;;26.08;;
56161;SDS011;42045;52.986;6.014;2022-10-14T02:46:25;156.80;;;24.63;;
56161;SDS011;42045;52.986;6.014;2022-10-14T02:48:53;141.50;;;24.02;;
56161;SDS011;42045;52.986;6.014;2022-10-14T02:51:18;178.57;;;25.73;;
56161;SDS011;42045;52.986;6.014;2022-10-14T02:53:44;120.88;;;22.08;;
56161;SDS011;42045;52.986;6.014;2022-10-14T02:56:13;252.48;;;28.10;;
56161;SDS011;42045;52.986;6.014;2022-10-14T02:58:39;192.73;;;26.10;;
56161;SDS011;42045;52.986;6.014;2022-10-14T03:01:05;144.93;;;23.35;;
56161;SDS011;42045;52.986;6.014;2022-10-14T03:03:31;186.80;;;24.75;;
56161;SDS011;42045;52.986;6.014;2022-10-14T03:05:56;183.07;;;24.05;;
56161;SDS011;42045;52.986;6.014;2022-10-14T03:08:22;196.85;;;25.30;;
56161;SDS011;42045;52.986;6.014;2022-10-14T03:10:48;236.15;;;27.92;;
56161;SDS011;42045;52.986;6.014;2022-10-14T03:13:13;144.63;;;24.98;;
56161;SDS011;42045;52.986;6.014;2022-10-14T03:15:39;257.67;;;30.23;;
56161;SDS011;42045;52.986;6.014;2022-10-14T03:18:05;263.48;;;28.58;;
56161;SDS011;42045;52.986;6.014;2022-10-14T03:20:31;293.05;;;30.02;;
56161;SDS011;42045;52.986;6.014;2022-10-14T03:22:56;179.57;;;25.10;;
56161;SDS011;42045;52.986;6.014;2022-10-14T03:25:22;219.55;;;27.58;;
56161;SDS011;42045;52.986;6.014;2022-10-14T03:27:48;218.75;;;27.30;;
56161;SDS011;42045;52.986;6.014;2022-10-14T03:30:14;184.68;;;24.10;;
56161;SDS011;42045;52.986;6.014;2022-10-14T03:32:39;241.35;;;26.88;;
56161;SDS011;42045;52.986;6.014;2022-10-14T03:35:05;267.88;;;33.60;;
56161;SDS011;42045;52.986;6.014;2022-10-14T03:37:32;241.35;;;34.78;;
56161;SDS011;42045;52.986;6.014;2022-10-14T03:39:57;180.45;;;31.83;;
56161;SDS011;42045;52.986;6.014;2022-10-14T03:42:23;142.88;;;32.67;;
56161;SDS011;42045;52.986;6.014;2022-10-14T03:44:49;132.25;;;31.70;;
56161;SDS011;42045;52.986;6.014;2022-10-14T03:47:14;114.38;;;30.95;;
56161;SDS011;42045;52.986;6.014;2022-10-14T03:49:40;135.77;;;30.88;;
56161;SDS011;42045;52.986;6.014;2022-10-14T03:52:06;135.43;;;29.05;;
56161;SDS011;42045;52.986;6.014;2022-10-14T03:54:31;153.40;;;26.88;;
56161;SDS011;42045;52.986;6.014;2022-10-14T03:56:57;189.38;;;27.23;;
56161;SDS011;42045;52.986;6.014;2022-10-14T03:59:23;332.13;;;32.20;;
56161;SDS011;42045;52.986;6.014;2022-10-14T04:01:48;226.88;;;27.60;;
56161;SDS011;42045;52.986;6.014;2022-10-14T04:04:14;267.70;;;30.13;;
56161;SDS011;42045;52.986;6.014;2022-10-14T04:06:39;229.60;;;30.23;;
56161;SDS011;42045;52.986;6.014;2022-10-14T04:09:05;158.98;;;25.90;;
56161;SDS011;42045;52.986;6.014;2022-10-14T04:11:31;145.32;;;26.27;;
56161;SDS011;42045;52.986;6.014;2022-10-14T04:13:57;132.20;;;26.70;;
56161;SDS011;42045;52.986;6.014;2022-10-14T04:16:23;154.75;;;26.70;;
56161;SDS011;42045;52.986;6.014;2022-10-14T04:18:49;118.32;;;25.35;;
56161;SDS011;42045;52.986;6.014;2022-10-14T04:21:15;117.85;;;26.30;;
56161;SDS011;42045;52.986;6.014;2022-10-14T04:23:40;129.98;;;26.45;;
56161;SDS011;42045;52.986;6.014;2022-10-14T04:26:07;152.13;;;26.40;;
56161;SDS011;42045;52.986;6.014;2022-10-14T04:28:34;121.93;;;24.75;;
56161;SDS011;42045;52.986;6.014;2022-10-14T04:31:00;80.30;;;25.38;;
56161;SDS011;42045;52.986;6.014;2022-10-14T04:33:26;176.40;;;28.67;;
56161;SDS011;42045;52.986;6.014;2022-10-14T04:35:56;143.27;;;29.35;;
56161;SDS011;42045;52.986;6.014;2022-10-14T04:38:26;138.38;;;28.08;;
56161;SDS011;42045;52.986;6.014;2022-10-14T04:40:52;150.98;;;29.30;;
56161;SDS011;42045;52.986;6.014;2022-10-14T04:43:18;155.63;;;28.27;;
56161;SDS011;42045;52.986;6.014;2022-10-14T04:45:44;86.97;;;26.20;;
56161;SDS011;42045;52.986;6.014;2022-10-14T04:48:10;133.23;;;28.63;;
56161;SDS011;42045;52.986;6.014;2022-10-14T04:50:36;130.32;;;27.77;;
56161;SDS011;42045;52.986;6.014;2022-10-14T04:53:01;141.43;;;28.48;;
56161;SDS011;42045;52.986;6.014;2022-10-14T04:55:27;102.00;;;28.00;;
56161;SDS011;42045;52.986;6.014;2022-10-14T04:57:53;107.10;;;30.58;;
56161;SDS011;42045;52.986;6.014;2022-10-14T05:00:18;125.85;;;42.55;;
56161;SDS011;42045;52.986;6.014;2022-10-14T05:02:44;93.30;;;28.60;;
56161;SDS011;42045;52.986;6.014;2022-10-14T05:05:10;319.70;;;32.88;;
56161;SDS011;42045;52.986;6.014;2022-10-14T05:07:36;243.88;;;39.15;;
56161;SDS011;42045;52.986;6.014;2022-10-14T05:10:02;279.40;;;33.90;;
56161;SDS011;42045;52.986;6.014;2022-10-14T05:12:29;227.57;;;35.58;;
56161;SDS011;42045;52.986;6.014;2022-10-14T05:14:55;180.60;;;31.85;;
56161;SDS011;42045;52.986;6.014;2022-10-14T05:17:21;262.50;;;32.17;;
56161;SDS011;42045;52.986;6.014;2022-10-14T05:19:47;215.27;;;30.52;;
56161;SDS011;42045;52.986;6.014;2022-10-14T05:22:12;219.27;;;30.20;;
56161;SDS011;42045;52.986;6.014;2022-10-14T05:24:38;227.90;;;30.55;;
56161;SDS011;42045;52.986;6.014;2022-10-14T05:27:04;141.57;;;28.45;;
56161;SDS011;42045;52.986;6.014;2022-10-14T05:29:29;199.15;;;29.92;;
56161;SDS011;42045;52.986;6.014;2022-10-14T05:31:55;237.35;;;32.92;;
56161;SDS011;42045;52.986;6.014;2022-10-14T05:34:21;201.90;;;30.45;;
56161;SDS011;42045;52.986;6.014;2022-10-14T05:36:46;184.57;;;30.55;;
56161;SDS011;42045;52.986;6.014;2022-10-14T05:39:12;259.75;;;33.50;;
56161;SDS011;42045;52.986;6.014;2022-10-14T05:41:38;192.13;;;28.98;;
56161;SDS011;42045;52.986;6.014;2022-10-14T05:44:04;149.25;;;24.60;;
56161;SDS011;42045;52.986;6.014;2022-10-14T05:46:30;162.15;;;26.27;;
56161;SDS011;42045;52.986;6.014;2022-10-14T05:48:56;174.80;;;28.00;;
56161;SDS011;42045;52.986;6.014;2022-10-14T05:51:24;191.45;;;26.25;;
56161;SDS011;42045;52.986;6.014;2022-10-14T05:53:50;165.77;;;23.80;;
56161;SDS011;42045;52.986;6.014;2022-10-14T05:56:16;164.02;;;22.38;;
56161;SDS011;42045;52.986;6.014;2022-10-14T05:58:42;55.80;;;20.30;;
56161;SDS011;42045;52.986;6.014;2022-10-14T06:01:08;116.72;;;21.70;;
56161;SDS011;42045;52.986;6.014;2022-10-14T06:03:34;112.78;;;20.58;;
56161;SDS011;42045;52.986;6.014;2022-10-14T06:06:00;69.25;;;21.50;;
56161;SDS011;42045;52.986;6.014;2022-10-14T06:08:26;92.90;;;21.88;;
56161;SDS011;42045;52.986;6.014;2022-10-14T06:10:52;171.95;;;22.90;;
56161;SDS011;42045;52.986;6.014;2022-10-14T06:13:18;123.65;;;19.98;;
56161;SDS011;42045;52.986;6.014;2022-10-14T06:15:44;121.07;;;21.05;;
56161;SDS011;42045;52.986;6.014;2022-10-14T06:18:10;106.25;;;21.83;;
56161;SDS011;42045;52.986;6.014;2022-10-14T06:20:36;135.63;;;22.90;;
56161;SDS011;42045;52.986;6.014;2022-10-14T06:23:01;163.68;;;23.20;;
56161;SDS011;42045;52.986;6.014;2022-10-14T06:25:27;165.07;;;22.77;;
56161;SDS011;42045;52.986;6.014;2022-10-14T06:27:54;121.93;;;22.13;;
56161;SDS011;42045;52.986;6.014;2022-10-14T06:30:20;114.25;;;22.90;;
56161;SDS011;42045;52.986;6.014;2022-10-14T06:32:46;123.13;;;22.23;;
56161;SDS011;42045;52.986;6.014;2022-10-14T06:35:11;159.68;;;24.20;;
56161;SDS011;42045;52.986;6.014;2022-10-14T06:37:37;129.82;;;22.80;;
56161;SDS011;42045;52.986;6.014;2022-10-14T06:40:03;94.75;;;22.02;;
56161;SDS011;42045;52.986;6.014;2022-10-14T06:42:29;131.95;;;23.20;;
56161;SDS011;42045;52.986;6.014;2022-10-14T06:44:55;97.97;;;23.05;;
56161;SDS011;42045;52.986;6.014;2022-10-14T06:47:20;87.63;;;22.77;;
56161;SDS011;42045;52.986;6.014;2022-10-14T06:49:46;62.25;;;21.52;;
56161;SDS011;42045;52.986;6.014;2022-10-14T06:52:12;106.05;;;24.75;;
56161;SDS011;42045;52.986;6.014;2022-10-14T06:54:37;87.90;;;23.52;;
56161;SDS011;42045;52.986;6.014;2022-10-14T06:57:03;97.63;;;23.60;;
56161;SDS011;42045;52.986;6.014;2022-10-14T06:59:28;73.97;;;23.83;;
56161;SDS011;42045;52.986;6.014;2022-10-14T07:01:54;41.47;;;21.08;;
56161;SDS011;42045;52.986;6.014;2022-10-14T07:04:20;52.28;;;20.92;;
56161;SDS011;42045;52.986;6.014;2022-10-14T07:06:46;50.22;;;22.23;;
56161;SDS011;42045;52.986;6.014;2022-10-14T07:09:11;45.08;;;21.80;;
56161;SDS011;42045;52.986;6.014;2022-10-14T07:11:37;44.88;;;21.83;;
56161;SDS011;42045;52.986;6.014;2022-10-14T07:14:03;33.85;;;21.30;;
56161;SDS011;42045;52.986;6.014;2022-10-14T07:16:28;64.72;;;23.40;;
56161;SDS011;42045;52.986;6.014;2022-10-14T07:18:54;33.65;;;20.50;;
56161;SDS011;42045;52.986;6.014;2022-10-14T07:21:19;35.83;;;21.85;;
56161;SDS011;42045;52.986;6.014;2022-10-14T07:23:45;45.50;;;23.27;;
56161;SDS011;42045;52.986;6.014;2022-10-14T07:26:11;37.20;;;22.10;;
56161;SDS011;42045;52.986;6.014;2022-10-14T07:28:37;35.33;;;21.27;;
56161;SDS011;42045;52.986;6.014;2022-10-14T07:31:04;36.33;;;23.67;;
56161;SDS011;42045;52.986;6.014;2022-10-14T07:33:31;34.33;;;21.52;;
56161;SDS011;42045;52.986;6.014;2022-10-14T07:36:02;40.20;;;22.52;;
56161;SDS011;42045;52.986;6.014;2022-10-14T07:38:30;39.45;;;23.58;;
56161;SDS011;42045;52.986;6.014;2022-10-14T07:41:07;33.58;;;22.60;;
56161;SDS011;42045;52.986;6.014;2022-10-14T07:43:41;38.72;;;22.90;;
56161;SDS011;42045;52.986;6.014;2022-10-14T07:46:08;28.88;;;21.25;;
56161;SDS011;42045;52.986;6.014;2022-10-14T07:48:36;35.22;;;22.98;;
56161;SDS011;42045;52.986;6.014;2022-10-14T07:51:03;34.92;;;22.38;;
56161;SDS011;42045;52.986;6.014;2022-10-14T07:53:29;50.67;;;26.13;;
56161;SDS011;42045;52.986;6.014;2022-10-14T07:55:56;42.70;;;25.02;;
56161;SDS011;42045;52.986;6.014;2022-10-14T07:58:24;36.20;;;23.75;;
56161;SDS011;42045;52.986;6.014;2022-10-14T08:00:52;42.58;;;23.75;;
56161;SDS011;42045;52.986;6.014;2022-10-14T08:03:19;38.83;;;23.10;;
56161;SDS011;42045;52.986;6.014;2022-10-14T08:05:45;38.38;;;23.90;;
56161;SDS011;42045;52.986;6.014;2022-10-14T08:08:11;39.45;;;24.00;;
56161;SDS011;42045;52.986;6.014;2022-10-14T08:10:38;40.42;;;24.52;;
56161;SDS011;42045;52.986;6.014;2022-10-14T08:13:05;42.63;;;23.60;;
56161;SDS011;42045;52.986;6.014;2022-10-14T08:15:32;37.97;;;24.38;;
56161;SDS011;42045;52.986;6.014;2022-10-14T08:18:04;35.58;;;24.42;;
56161;SDS011;42045;52.986;6.014;2022-10-14T08:20:31;44.97;;;25.13;;
56161;SDS011;42045;52.986;6.014;2022-10-14T08:22:58;61.33;;;26.73;;
56161;SDS011;42045;52.986;6.014;2022-10-14T08:25:23;50.53;;;27.25;;
56161;SDS011;42045;52.986;6.014;2022-10-14T08:27:49;45.00;;;25.67;;
56161;SDS011;42045;52.986;6.014;2022-10-14T08:30:16;51.35;;;27.63;;
56161;SDS011;42045;52.986;6.014;2022-10-14T08:32:42;54.50;;;28.13;;
56161;SDS011;42045;52.986;6.014;2022-10-14T08:35:08;64.75;;;29.00;;
56161;SDS011;42045;52.986;6.014;2022-10-14T08:37:34;62.55;;;28.20;;
56161;SDS011;42045;52.986;6.014;2022-10-14T08:40:00;48.67;;;28.23;;
56161;SDS011;42045;52.986;6.014;2022-10-14T08:45:07;53.03;;;28.48;;
56161;SDS011;42045;52.986;6.014;2022-10-14T08:47:40;60.42;;;29.73;;
56161;SDS011;42045;52.986;6.014;2022-10-14T08:52:54;53.63;;;29.48;;
56161;SDS011;42045;52.986;6.014;2022-10-14T08:55:31;62.55;;;31.27;;
56161;SDS011;42045;52.986;6.014;2022-10-14T08:58:23;67.45;;;31.30;;
56161;SDS011;42045;52.986;6.014;2022-10-14T09:00:52;68.78;;;31.50;;
56161;SDS011;42045;52.986;6.014;2022-10-14T09:03:23;69.35;;;32.35;;
56161;SDS011;42045;52.986;6.014;2022-10-14T09:06:00;55.70;;;29.70;;
56161;SDS011;42045;52.986;6.014;2022-10-14T09:08:43;62.90;;;32.38;;
56161;SDS011;42045;52.986;6.014;2022-10-14T09:11:15;60.47;;;31.55;;
56161;SDS011;42045;52.986;6.014;2022-10-14T09:13:44;60.72;;;28.80;;
56161;SDS011;42045;52.986;6.014;2022-10-14T09:18:45;59.63;;;28.98;;
56161;SDS011;42045;52.986;6.014;2022-10-14T09:21:33;68.43;;;29.60;;
56161;SDS011;42045;52.986;6.014;2022-10-14T09:27:03;61.70;;;29.30;;
56161;SDS011;42045;52.986;6.014;2022-10-14T09:32:41;47.70;;;25.25;;
56161;SDS011;42045;52.986;6.014;2022-10-14T09:35:31;47.65;;;24.50;;
56161;SDS011;42045;52.986;6.014;2022-10-14T09:37:59;36.70;;;22.30;;
56161;SDS011;42045;52.986;6.014;2022-10-14T09:42:57;37.50;;;21.52;;
56161;SDS011;42045;52.986;6.014;2022-10-14T09:45:49;37.65;;;21.85;;
56161;SDS011;42045;52.986;6.014;2022-10-14T09:51:20;36.80;;;21.33;;
56161;SDS011;42045;52.986;6.014;2022-10-14T09:53:51;30.40;;;19.67;;
56161;SDS011;42045;52.986;6.014;2022-10-14T09:56:29;32.47;;;19.85;;
56161;SDS011;42045;52.986;6.014;2022-10-14T09:58:55;33.25;;;19.35;;
56161;SDS011;42045;52.986;6.014;2022-10-14T10:03:49;31.50;;;17.50;;
56161;SDS011;42045;52.986;6.014;2022-10-14T10:06:17;24.70;;;16.88;;
56161;SDS011;42045;52.986;6.014;2022-10-14T10:11:25;29.63;;;17.85;;
56161;SDS011;42045;52.986;6.014;2022-10-14T10:13:52;33.35;;;18.77;;
56161;SDS011;42045;52.986;6.014;2022-10-14T10:16:26;27.88;;;16.00;;
56161;SDS011;42045;52.986;6.014;2022-10-14T10:18:57;22.00;;;15.45;;
56161;SDS011;42045;52.986;6.014;2022-10-14T10:21:43;24.45;;;14.68;;
56161;SDS011;42045;52.986;6.014;2022-10-14T10:24:14;19.60;;;14.00;;
56161;SDS011;42045;52.986;6.014;2022-10-14T10:26:47;22.10;;;13.68;;
56161;SDS011;42045;52.986;6.014;2022-10-14T10:29:23;22.23;;;13.95;;
56161;SDS011;42045;52.986;6.014;2022-10-14T10:32:16;23.90;;;14.13;;
56161;SDS011;42045;52.986;6.014;2022-10-14T10:42:27;16.52;;;11.52;;
56161;SDS011;42045;52.986;6.014;2022-10-14T10:50:24;12.75;;;9.75;;
56161;SDS011;42045;52.986;6.014;2022-10-14T11:01:04;15.50;;;11.00;;
56161;SDS011;42045;52.986;6.014;2022-10-14T11:06:39;14.43;;;9.95;;
56161;SDS011;42045;52.986;6.014;2022-10-14T11:15:41;12.85;;;9.25;;
56161;SDS011;42045;52.986;6.014;2022-10-14T11:18:34;15.48;;;10.10;;
56161;SDS011;42045;52.986;6.014;2022-10-14T11:21:27;14.18;;;9.88;;
56161;SDS011;42045;52.986;6.014;2022-10-14T11:26:56;13.25;;;10.10;;
56161;SDS011;42045;52.986;6.014;2022-10-14T11:32:22;14.38;;;10.27;;
56161;SDS011;42045;52.986;6.014;2022-10-14T11:37:34;14.07;;;10.15;;
56161;SDS011;42045;52.986;6.014;2022-10-14T11:40:24;13.95;;;9.68;;
56161;SDS011;42045;52.986;6.014;2022-10-14T11:45:49;14.18;;;9.70;;
56161;SDS011;42045;52.986;6.014;2022-10-14T11:48:26;12.93;;;8.68;;
56161;SDS011;42045;52.986;6.014;2022-10-14T11:50:57;11.77;;;8.77;;
56161;SDS011;42045;52.986;6.014;2022-10-14T11:53:42;15.15;;;10.15;;
56161;SDS011;42045;52.986;6.014;2022-10-14T11:59:16;15.93;;;9.95;;
56161;SDS011;42045;52.986;6.014;2022-10-14T12:01:50;16.77;;;10.13;;
56161;SDS011;42045;52.986;6.014;2022-10-14T12:04:28;12.27;;;9.02;;
56161;SDS011;42045;52.986;6.014;2022-10-14T12:07:00;14.50;;;9.48;;
56161;SDS011;42045;52.986;6.014;2022-10-14T12:09:47;14.43;;;9.50;;
56161;SDS011;42045;52.986;6.014;2022-10-14T12:12:18;12.30;;;8.77;;
56161;SDS011;42045;52.986;6.014;2022-10-14T12:14:56;14.38;;;8.93;;
56161;SDS011;42045;52.986;6.014;2022-10-14T12:17:41;12.90;;;7.65;;
56161;SDS011;42045;52.986;6.014;2022-10-14T12:20:28;13.02;;;8.15;;
56161;SDS011;42045;52.986;6.014;2022-10-14T12:23:22;10.18;;;8.20;;
56161;SDS011;42045;52.986;6.014;2022-10-14T12:25:54;11.10;;;7.82;;
56161;SDS011;42045;52.986;6.014;2022-10-14T12:28:28;11.48;;;7.22;;
56161;SDS011;42045;52.986;6.014;2022-10-14T12:31:18;10.65;;;8.57;;
56161;SDS011;42045;52.986;6.014;2022-10-14T12:36:40;11.00;;;8.90;;
56161;SDS011;42045;52.986;6.014;2022-10-14T12:47:45;15.30;;;10.65;;
56161;SDS011;42045;52.986;6.014;2022-10-14T12:52:39;16.08;;;12.30;;
56161;SDS011;42045;52.986;6.014;2022-10-14T12:55:19;24.65;;;13.32;;
56161;SDS011;42045;52.986;6.014;2022-10-14T12:57:57;18.45;;;12.02;;
56161;SDS011;42045;52.986;6.014;2022-10-14T13:02:52;16.55;;;12.50;;
56161;SDS011;42045;52.986;6.014;2022-10-14T13:05:28;21.20;;;13.27;;
56161;SDS011;42045;52.986;6.014;2022-10-14T13:08:24;15.98;;;12.20;;
56161;SDS011;42045;52.986;6.014;2022-10-14T13:18:56;17.27;;;12.82;;
56161;SDS011;42045;52.986;6.014;2022-10-14T13:24:01;19.27;;;14.07;;
56161;SDS011;42045;52.986;6.014;2022-10-14T13:29:06;21.33;;;13.95;;
56161;SDS011;42045;52.986;6.014;2022-10-14T13:39:47;17.75;;;13.43;;
56161;SDS011;42045;52.986;6.014;2022-10-14T13:42:23;16.23;;;12.13;;
56161;SDS011;42045;52.986;6.014;2022-10-14T13:44:57;15.45;;;12.20;;
56161;SDS011;42045;52.986;6.014;2022-10-14T13:47:33;14.30;;;12.52;;
56161;SDS011;42045;52.986;6.014;2022-10-14T13:50:00;12.85;;;11.00;;
56161;SDS011;42045;52.986;6.014;2022-10-14T13:52:27;11.45;;;10.27;;
56161;SDS011;42045;52.986;6.014;2022-10-14T13:55:15;10.80;;;9.57;;
56161;SDS011;42045;52.986;6.014;2022-10-14T13:57:43;10.27;;;9.23;;
56161;SDS011;42045;52.986;6.014;2022-10-14T14:03:23;10.27;;;9.30;;
56161;SDS011;42045;52.986;6.014;2022-10-14T14:05:53;10.07;;;9.18;;
56161;SDS011;42045;52.986;6.014;2022-10-14T14:08:24;10.27;;;9.32;;
56161;SDS011;42045;52.986;6.014;2022-10-14T14:10:58;11.23;;;10.13;;
56161;SDS011;42045;52.986;6.014;2022-10-14T14:13:26;12.52;;;10.02;;
56161;SDS011;42045;52.986;6.014;2022-10-14T14:15:54;11.60;;;10.52;;
56161;SDS011;42045;52.986;6.014;2022-10-14T14:18:27;13.25;;;11.85;;
56161;SDS011;42045;52.986;6.014;2022-10-14T14:20:54;13.95;;;11.73;;
56161;SDS011;42045;52.986;6.014;2022-10-14T14:23:22;13.63;;;11.93;;
56161;SDS011;42045;52.986;6.014;2022-10-14T14:25:48;16.30;;;13.25;;
56161;SDS011;42045;52.986;6.014;2022-10-14T14:28:14;16.90;;;13.20;;
56161;SDS011;42045;52.986;6.014;2022-10-14T14:30:45;14.60;;;13.10;;
56161;SDS011;42045;52.986;6.014;2022-10-14T14:33:26;14.73;;;13.20;;
56161;SDS011;42045;52.986;6.014;2022-10-14T14:35:57;15.43;;;13.25;;
56161;SDS011;42045;52.986;6.014;2022-10-14T14:38:29;17.05;;;13.98;;
56161;SDS011;42045;52.986;6.014;2022-10-14T14:43:48;15.70;;;13.63;;
56161;SDS011;42045;52.986;6.014;2022-10-14T14:46:20;17.77;;;14.80;;
56161;SDS011;42045;52.986;6.014;2022-10-14T14:48:54;19.58;;;15.35;;
56161;SDS011;42045;52.986;6.014;2022-10-14T14:51:21;21.60;;;16.48;;
56161;SDS011;42045;52.986;6.014;2022-10-14T14:53:51;18.85;;;15.90;;
56161;SDS011;42045;52.986;6.014;2022-10-14T14:56:22;20.40;;;15.68;;
56161;SDS011;42045;52.986;6.014;2022-10-14T14:58:53;18.08;;;15.38;;
56161;SDS011;42045;52.986;6.014;2022-10-14T15:01:24;20.20;;;15.60;;
56161;SDS011;42045;52.986;6.014;2022-10-14T15:06:20;21.08;;;15.68;;
56161;SDS011;42045;52.986;6.014;2022-10-14T15:08:48;20.75;;;15.98;;
56161;SDS011;42045;52.986;6.014;2022-10-14T15:11:16;19.52;;;15.15;;
56161;SDS011;42045;52.986;6.014;2022-10-14T15:13:44;19.00;;;15.38;;
56161;SDS011;42045;52.986;6.014;2022-10-14T15:16:30;19.20;;;14.23;;
56161;SDS011;42045;52.986;6.014;2022-10-14T15:21:45;16.67;;;13.02;;
56161;SDS011;42045;52.986;6.014;2022-10-14T15:24:15;17.05;;;13.60;;
56161;SDS011;42045;52.986;6.014;2022-10-14T15:26:42;17.38;;;13.88;;
56161;SDS011;42045;52.986;6.014;2022-10-14T15:29:17;14.80;;;11.98;;
56161;SDS011;42045;52.986;6.014;2022-10-14T15:32:04;15.52;;;12.73;;
56161;SDS011;42045;52.986;6.014;2022-10-14T15:34:30;13.00;;;11.68;;
56161;SDS011;42045;52.986;6.014;2022-10-14T15:36:56;14.77;;;12.38;;
56161;SDS011;42045;52.986;6.014;2022-10-14T15:39:22;13.63;;;12.23;;
56161;SDS011;42045;52.986;6.014;2022-10-14T15:41:47;15.43;;;12.57;;
56161;SDS011;42045;52.986;6.014;2022-10-14T15:44:13;14.07;;;12.45;;
56161;SDS011;42045;52.986;6.014;2022-10-14T15:46:40;14.30;;;11.85;;
56161;SDS011;42045;52.986;6.014;2022-10-14T15:49:30;13.27;;;11.45;;
56161;SDS011;42045;52.986;6.014;2022-10-14T15:51:57;13.60;;;11.65;;
56161;SDS011;42045;52.986;6.014;2022-10-14T15:54:23;12.32;;;10.95;;
56161;SDS011;42045;52.986;6.014;2022-10-14T15:56:51;13.57;;;11.25;;
56161;SDS011;42045;52.986;6.014;2022-10-14T15:59:21;15.55;;;12.30;;
56161;SDS011;42045;52.986;6.014;2022-10-14T16:01:47;13.38;;;11.85;;
56161;SDS011;42045;52.986;6.014;2022-10-14T16:04:14;16.17;;;12.82;;
56161;SDS011;42045;52.986;6.014;2022-10-14T16:06:49;14.02;;;12.50;;
56161;SDS011;42045;52.986;6.014;2022-10-14T16:09:18;15.00;;;12.52;;
56161;SDS011;42045;52.986;6.014;2022-10-14T16:11:44;16.23;;;13.55;;
56161;SDS011;42045;52.986;6.014;2022-10-14T16:14:10;18.77;;;15.20;;
56161;SDS011;42045;52.986;6.014;2022-10-14T16:16:41;21.52;;;17.58;;
56161;SDS011;42045;52.986;6.014;2022-10-14T16:19:09;22.02;;;17.98;;
56161;SDS011;42045;52.986;6.014;2022-10-14T16:21:35;22.55;;;18.15;;
56161;SDS011;42045;52.986;6.014;2022-10-14T16:24:03;18.33;;;15.35;;
56161;SDS011;42045;52.986;6.014;2022-10-14T16:26:29;19.63;;;15.27;;
56161;SDS011;42045;52.986;6.014;2022-10-14T16:28:55;20.25;;;16.75;;
56161;SDS011;42045;52.986;6.014;2022-10-14T16:31:22;22.92;;;17.15;;
56161;SDS011;42045;52.986;6.014;2022-10-14T16:33:48;21.08;;;16.65;;
56161;SDS011;42045;52.986;6.014;2022-10-14T16:36:14;25.67;;;18.48;;
56161;SDS011;42045;52.986;6.014;2022-10-14T16:38:40;25.13;;;19.25;;
56161;SDS011;42045;52.986;6.014;2022-10-14T16:41:07;23.40;;;18.58;;
56161;SDS011;42045;52.986;6.014;2022-10-14T16:43:34;29.77;;;18.88;;
56161;SDS011;42045;52.986;6.014;2022-10-14T16:46:00;27.85;;;19.92;;
56161;SDS011;42045;52.986;6.014;2022-10-14T16:48:27;25.55;;;18.83;;
56161;SDS011;42045;52.986;6.014;2022-10-14T16:50:53;25.60;;;18.58;;
56161;SDS011;42045;52.986;6.014;2022-10-14T16:53:19;25.30;;;20.05;;